Time;durP1;ratioP1;P1;durP2;ratioP2;P2;SDS_P1;SDS_P2;PMS_P1;PMS_P2;Temp;Humidity;BMP_temperature;BMP_pressure;BME280_temperature;BME280_humidity;BME280_pressure;Samples;Min_cycle;Max_cycle;Signal;HPM_P1;HPM_P2
2022/09/12 00:00:38;;;;;;;;;;;;;;;24.66;61.73;100297.31;7407003;19;1606;-58
2022/09/12 00:03:06;;;;;;;;;;;;;;;24.66;61.68;100308.13;7404895;19;1743;-58
2022/09/12 00:05:35;;;;;;;;;;;;;;;24.61;61.73;100286.19;7407355;19;1861;-69
2022/09/12 00:08:05;;;;;;;;;;;;;;;24.63;61.28;100288.72;7404875;19;1733;-70
2022/09/12 00:10:34;;;;;;;;;;;;;;;24.64;61.58;100271.47;7405878;19;1578;-69
2022/09/12 00:13:02;;;;;;;;;;;;;;;24.63;61.40;100273.34;7407902;19;987;-68
2022/09/12 00:15:30;;;;;;;;;;;;;;;24.68;61.59;100280.91;7407102;19;1662;-69
2022/09/12 00:17:58;;;;;;;;;;;;;;;24.67;61.71;100290.03;7406308;19;1567;-69
2022/09/12 00:20:27;;;;;;;;;;;;;;;24.65;61.39;100294.78;7406362;19;1563;-59
2022/09/12 00:22:55;;;;;;;;;;;;;;;24.64;61.57;100293.13;7405953;19;1634;-58
2022/09/12 00:25:26;;;;;;;;;;;;;;;24.65;61.59;100294.78;7405284;19;1851;-59
2022/09/12 00:27:54;;;;;;;;;;;;;;;24.69;61.50;100305.06;7406944;19;1622;-59
2022/09/12 00:30:22;;;;;;;;;;;;;;;24.68;61.53;100307.94;7406703;19;1054;-58
2022/09/12 00:32:53;;;;;;;;;;;;;;;24.64;61.73;100299.34;7404231;19;1760;-59
2022/09/12 00:35:21;;;;;;;;;;;;;;;24.65;61.72;100297.47;7405851;19;1547;-59
2022/09/12 00:37:50;;;;;;;;;;;;;;;24.68;61.55;100297.13;7405861;19;1555;-58
2022/09/12 00:40:18;;;;;;;;;;;;;;;24.66;61.72;100291.91;7404021;19;1634;-59
2022/09/12 00:42:49;;;;;;;;;;;;;;;24.64;61.60;100290.41;7407262;19;1032;-59
2022/09/12 00:45:21;;;;;;;;;;;;;;;24.63;61.42;100305.81;7405146;19;1865;-59
2022/09/12 00:47:49;;;;;;;;;;;;;;;24.65;61.80;100297.47;7403476;19;1568;-58
2022/09/12 00:50:19;;;;;;;;;;;;;;;24.62;61.68;100293.28;7405979;19;1544;-58
2022/09/12 00:52:51;;;;;;;;;;;;;;;24.61;61.71;100297.88;7406605;19;996;-59
2022/09/12 00:55:21;;;;;;;;;;;;;;;24.61;61.56;100302.41;7402203;19;1716;-59
2022/09/12 00:57:58;;;;;;;;;;;;;;;24.61;61.58;100297.88;7405342;19;1535;-59
2022/09/12 01:00:27;;;;;;;;;;;;;;;24.61;61.87;100308.69;7404944;19;1790;-59
2022/09/12 01:02:58;;;;;;;;;;;;;;;24.60;61.51;100312.38;7402881;19;1567;-59
2022/09/12 01:05:26;;;;;;;;;;;;;;;24.64;61.79;100303.94;7405120;19;1826;-59
2022/09/12 01:07:56;;;;;;;;;;;;;;;24.59;61.73;100297.22;7402774;19;1796;-59
2022/09/12 01:10:25;;;;;;;;;;;;;;;24.58;61.63;100292.81;7403865;19;1658;-59
2022/09/12 01:12:55;;;;;;;;;;;;;;;24.60;61.69;100301.56;7404224;19;1313;-58
2022/09/12 01:15:24;;;;;;;;;;;;;;;24.57;61.96;100291.16;7404822;19;1019;-70
2022/09/12 01:17:58;;;;;;;;;;;;;;;24.60;61.70;100290.75;7402099;19;1709;-69
2022/09/12 01:20:46;;;;;;;;;;;;;;;24.58;61.85;100260.38;7402819;19;1539;-69
2022/09/12 01:23:35;;;;;;;;;;;;;;;24.62;61.71;100298.69;7404555;19;1638;-69
2022/09/12 01:26:13;;;;;;;;;;;;;;;24.64;61.61;100298.53;7402836;19;1821;-59
2022/09/12 01:28:54;;;;;;;;;;;;;;;24.60;61.67;100296.16;7403903;19;1630;-59
2022/09/12 01:31:30;;;;;;;;;;;;;;;24.64;61.76;100307.47;7404182;19;1642;-69
2022/09/12 01:34:05;;;;;;;;;;;;;;;24.65;61.60;100316.41;7403989;19;1572;-69
2022/09/12 01:36:37;;;;;;;;;;;;;;;24.64;61.90;100307.47;7404682;19;964;-69
2022/09/12 01:39:06;;;;;;;;;;;;;;;24.58;61.86;100300.91;7404153;19;1773;-69
2022/09/12 01:41:42;;;;;;;;;;;;;;;24.61;61.97;100308.69;7403779;19;1670;-69
2022/09/12 01:44:15;;;;;;;;;;;;;;;24.59;61.96;100299.91;7403958;19;1572;-70
2022/09/12 01:46:48;;;;;;;;;;;;;;;24.60;61.99;100295.34;7402894;19;1858;-70
2022/09/12 01:49:19;;;;;;;;;;;;;;;24.59;61.90;100305.31;7404101;19;1031;-70
2022/09/12 01:51:53;;;;;;;;;;;;;;;24.58;61.89;100300.09;7402905;19;1693;-70
2022/09/12 01:54:24;;;;;;;;;;;;;;;24.59;61.86;100299.91;7403153;19;921;-69
2022/09/12 01:56:54;;;;;;;;;;;;;;;24.58;61.82;100308.19;7402173;19;1805;-69
2022/09/12 01:59:25;;;;;;;;;;;;;;;24.59;61.80;100305.31;7403798;19;1678;-69
2022/09/12 02:01:59;;;;;;;;;;;;;;;24.59;61.79;100313.44;7385035;19;3360;-81
2022/09/12 02:04:30;;;;;;;;;;;;;;;24.57;62.07;100312.78;7403668;19;1505;-81
2022/09/12 02:07:03;;;;;;;;;;;;;;;24.55;62.01;100304.00;7403856;19;1847;-81
2022/09/12 02:09:36;;;;;;;;;;;;;;;24.56;62.08;100300.25;7403471;19;1616;-81
2022/09/12 02:12:05;;;;;;;;;;;;;;;24.56;62.13;100307.53;7403037;19;1681;-82
2022/09/12 02:14:36;;;;;;;;;;;;;;;24.55;61.89;100306.72;7404239;19;1408;-82
2022/09/12 02:17:08;;;;;;;;;;;;;;;24.58;61.99;100314.44;7409346;19;1339;-82
2022/09/12 02:19:43;;;;;;;;;;;;;;;24.53;62.04;100295.25;7417642;19;1571;-82
2022/09/12 02:22:14;;;;;;;;;;;;;;;24.55;61.88;100303.16;7411937;19;1018;-82
2022/09/12 02:24:44;;;;;;;;;;;;;;;24.56;61.79;100307.53;7407547;19;1697;-81
2022/09/12 02:27:16;;;;;;;;;;;;;;;24.58;61.73;100292.81;7409751;19;1845;-82
2022/09/12 02:29:45;;;;;;;;;;;;;;;24.55;61.97;100281.53;7412307;19;1690;-83
2022/09/12 02:32:21;;;;;;;;;;;;;;;24.54;61.84;100288.81;7408903;19;1768;-82
2022/09/12 02:34:55;;;;;;;;;;;;;;;24.55;61.87;100293.19;7410168;19;1501;-81
2022/09/12 02:37:26;;;;;;;;;;;;;;;24.55;61.89;100287.78;7406672;19;1448;-81
2022/09/12 02:39:56;;;;;;;;;;;;;;;24.55;61.93;100281.53;7411776;19;1335;-82
2022/09/12 02:42:25;;;;;;;;;;;;;;;24.59;62.14;100293.66;7424166;19;1034;-81
2022/09/12 02:44:56;;;;;;;;;;;;;;;24.55;61.84;100281.53;7411707;19;1062;-83
2022/09/12 02:47:29;;;;;;;;;;;;;;;24.54;62.00;100275.28;7410679;19;1847;-82
2022/09/12 02:50:00;;;;;;;;;;;;;;;24.53;61.86;100281.72;7410432;19;1322;-82
2022/09/12 02:52:30;;;;;;;;;;;;;;;24.52;61.98;100288.13;7413053;19;1035;-82
2022/09/12 02:54:59;;;;;;;;;;;;;;;24.54;61.89;100274.44;7409177;19;1447;-83
2022/09/12 02:57:28;;;;;;;;;;;;;;;24.53;61.99;100283.56;7410594;19;1459;-82
2022/09/12 03:00:00;;;;;;;;;;;;;;;24.52;62.05;100288.13;7412839;19;1302;-82
2022/09/12 03:02:45;;;;;;;;;;;;;;;24.55;61.91;100287.78;7410308;19;1417;-82
2022/09/12 03:05:22;;;;;;;;;;;;;;;24.50;61.90;100276.69;7408686;19;1388;-82
2022/09/12 03:08:11;;;;;;;;;;;;;;;24.52;62.18;100282.72;7408381;19;1666;-81
2022/09/12 03:11:00;;;;;;;;;;;;;;;24.50;61.93;100300.13;7415791;19;1539;-82
2022/09/12 03:13:35;;;;;;;;;;;;;;;24.49;61.94;100304.72;7417223;19;1414;-81
2022/09/12 03:16:07;;;;;;;;;;;;;;;24.50;62.14;100290.19;7417341;19;1063;-82
2022/09/12 03:18:50;;;;;;;;;;;;;;;24.49;62.20;100290.34;7418163;19;942;-82
2022/09/12 03:21:23;;;;;;;;;;;;;;;24.49;61.93;100283.09;7417549;19;1082;-82
2022/09/12 03:24:00;;;;;;;;;;;;;;;24.51;62.16;100297.28;7418832;19;1350;-82
2022/09/12 03:26:33;;;;;;;;;;;;;;;24.48;61.96;100284.09;7412945;19;1865;-82
2022/09/12 03:29:02;;;;;;;;;;;;;;;24.49;62.28;100291.19;7416371;19;1653;-82
2022/09/12 03:31:31;;;;;;;;;;;;;;;24.55;62.07;100308.56;7413420;19;1630;-81
2022/09/12 03:34:04;;;;;;;;;;;;;;;24.51;62.29;100300.00;7412779;19;1840;-82
2022/09/12 03:36:33;;;;;;;;;;;;;;;24.53;62.11;100306.06;7411722;19;1493;-83
2022/09/12 03:39:01;;;;;;;;;;;;;;;24.50;62.11;100301.00;7412414;19;1401;-81
2022/09/12 03:41:30;;;;;;;;;;;;;;;24.49;62.12;100298.44;7414917;19;1756;-82
2022/09/12 03:44:00;;;;;;;;;;;;;;;24.46;62.16;100291.56;7413751;19;1697;-82
2022/09/12 03:46:29;;;;;;;;;;;;;;;24.48;62.21;100291.38;7413515;19;1848;-82
2022/09/12 03:49:06;;;;;;;;;;;;;;;24.51;62.14;100297.28;7412479;19;1543;-82
2022/09/12 03:51:38;;;;;;;;;;;;;;;24.45;62.32;100295.25;7420580;19;1544;-81
2022/09/12 03:54:06;;;;;;;;;;;;;;;24.48;62.27;100303.03;7421521;19;1383;-83
2022/09/12 03:56:48;;;;;;;;;;;;;;;24.46;62.17;100304.22;7426402;19;1855;-82
2022/09/12 03:59:17;;;;;;;;;;;;;;;24.45;62.21;100297.13;7415029;19;1399;-81
2022/09/12 04:01:46;;;;;;;;;;;;;;;24.46;62.08;100305.06;7414861;19;1752;-82
2022/09/12 04:04:15;;;;;;;;;;;;;;;24.46;62.11;100310.47;7412408;19;1705;-83
2022/09/12 04:06:46;;;;;;;;;;;;;;;24.49;62.30;100320.06;7414116;19;1844;-82
2022/09/12 04:09:14;;;;;;;;;;;;;;;24.49;62.09;100320.06;7413427;19;1261;-83
2022/09/12 04:11:43;;;;;;;;;;;;;;;24.49;62.07;100320.94;7413745;19;1663;-81
2022/09/12 04:14:13;;;;;;;;;;;;;;;24.41;62.28;100310.16;7413506;19;1699;-82
2022/09/12 04:16:42;;;;;;;;;;;;;;;24.45;62.09;100314.19;7410510;19;1800;-82
2022/09/12 04:19:11;;;;;;;;;;;;;;;24.45;62.26;100321.47;7409098;19;1809;-83
2022/09/12 04:21:41;;;;;;;;;;;;;;;24.47;62.31;100312.16;7414604;19;1657;-82
2022/09/12 04:24:12;;;;;;;;;;;;;;;24.44;62.24;100309.81;7413800;19;1018;-81
2022/09/12 04:26:40;;;;;;;;;;;;;;;24.43;62.26;100316.22;7411317;19;1810;-81
2022/09/12 04:29:09;;;;;;;;;;;;;;;24.49;62.12;100334.44;7411783;19;1591;-81
2022/09/12 04:31:39;;;;;;;;;;;;;;;24.53;62.09;100348.44;7413691;19;1532;-82
2022/09/12 04:34:08;;;;;;;;;;;;;;;24.47;62.07;100327.53;7412619;19;1623;-82
2022/09/12 04:36:37;;;;;;;;;;;;;;;24.50;62.28;100349.66;7413741;19;1742;-83
2022/09/12 04:39:06;;;;;;;;;;;;;;;24.48;62.16;100348.97;7413276;19;1004;-82
2022/09/12 04:41:41;;;;;;;;;;;;;;;24.49;62.01;100344.41;7412453;19;1733;-82
2022/09/12 04:44:12;;;;;;;;;;;;;;;24.50;62.06;100359.59;7413121;19;1802;-82
2022/09/12 04:46:41;;;;;;;;;;;;;;;24.50;61.96;100365.00;7410179;19;1848;-82
2022/09/12 04:49:10;;;;;;;;;;;;;;;24.50;62.32;100370.41;7411822;19;1538;-82
2022/09/12 04:51:41;;;;;;;;;;;;;;;24.47;62.17;100366.22;7411797;19;1540;-82
2022/09/12 04:54:11;;;;;;;;;;;;;;;24.45;62.26;100362.84;7409880;19;1492;-82
2022/09/12 04:56:45;;;;;;;;;;;;;;;24.45;62.29;100356.59;7412907;19;951;-83
2022/09/12 04:59:14;;;;;;;;;;;;;;;24.47;62.19;100358.13;7412324;19;1650;-81
2022/09/12 05:01:43;;;;;;;;;;;;;;;24.46;62.14;100374.50;7410282;19;1681;-82
2022/09/12 05:04:11;;;;;;;;;;;;;;;24.43;62.25;100370.28;7412899;19;1641;-82
2022/09/12 05:06:43;;;;;;;;;;;;;;;24.43;62.30;100367.56;7412620;19;1833;-82
2022/09/12 05:09:13;;;;;;;;;;;;;;;24.47;61.96;100379.75;7412890;19;1665;-82
2022/09/12 05:11:58;;;;;;;;;;;;;;;24.51;61.87;100386.50;7426109;19;1543;-81
2022/09/12 05:14:27;;;;;;;;;;;;;;;24.49;62.25;100372.28;7410338;19;1772;-82
2022/09/12 05:16:58;;;;;;;;;;;;;;;24.52;62.18;100384.63;7412764;19;1591;-82
2022/09/12 05:19:28;;;;;;;;;;;;;;;24.53;62.12;100375.47;7408328;19;1512;-82
2022/09/12 05:21:57;;;;;;;;;;;;;;;24.54;62.17;100359.09;7411228;19;1517;-81
2022/09/12 05:24:25;;;;;;;;;;;;;;;24.56;62.06;100369.72;7416475;19;1070;-82
2022/09/12 05:26:57;;;;;;;;;;;;;;;24.55;61.94;100373.44;7423219;19;1829;-82
2022/09/12 05:29:27;;;;;;;;;;;;;;;24.58;61.95;100357.69;7410843;19;1773;-83
2022/09/12 05:31:56;;;;;;;;;;;;;;;24.59;61.93;100370.19;7411655;19;1574;-82
2022/09/12 05:34:26;;;;;;;;;;;;;;;24.61;61.72;100368.16;7409384;19;1535;-82
2022/09/12 05:36:56;;;;;;;;;;;;;;;24.61;61.62;100370.88;7407506;19;1475;-82
2022/09/12 05:39:26;;;;;;;;;;;;;;;24.64;61.92;100350.72;7406718;19;1093;-82
2022/09/12 05:41:57;;;;;;;;;;;;;;;24.64;61.75;100366.09;7411139;19;1681;-83
2022/09/12 05:44:27;;;;;;;;;;;;;;;24.69;61.52;100382.59;7407586;19;1426;-82
2022/09/12 05:46:56;;;;;;;;;;;;;;;24.71;61.57;100389.53;7410685;19;1855;-82
2022/09/12 05:49:24;;;;;;;;;;;;;;;24.71;61.54;100375.16;7414384;19;1149;-82
2022/09/12 05:52:08;;;;;;;;;;;;;;;24.79;61.74;100385.91;7420263;19;1725;-81
2022/09/12 05:54:37;;;;;;;;;;;;;;;24.78;61.47;100395.88;7415875;19;1654;-82
2022/09/12 05:57:09;;;;;;;;;;;;;;;24.77;61.46;100398.75;7412311;19;1395;-82
2022/09/12 05:59:42;;;;;;;;;;;;;;;24.75;61.41;100390.00;7415531;19;1427;-81
2022/09/12 06:02:11;;;;;;;;;;;;;;;24.75;61.62;100390.00;7417801;19;1386;-82
2022/09/12 06:04:42;;;;;;;;;;;;;;;24.75;61.73;100400.81;7419017;19;1702;-81
2022/09/12 06:07:11;;;;;;;;;;;;;;;24.77;61.46;100382.53;7416000;19;1847;-82
2022/09/12 06:09:39;;;;;;;;;;;;;;;24.79;61.44;100396.75;7414778;19;1499;-82
2022/09/12 06:12:12;;;;;;;;;;;;;;;24.80;61.32;100414.63;7420090;19;1336;-81
2022/09/12 06:14:40;;;;;;;;;;;;;;;24.77;61.64;100383.41;7415978;19;1407;-82
2022/09/12 06:17:09;;;;;;;;;;;;;;;24.83;61.22;100380.97;7416618;19;1697;-82
2022/09/12 06:19:40;;;;;;;;;;;;;;;24.83;61.26;100391.78;7419593;19;1552;-84
2022/09/12 06:24:58;;;;;;;;;;;;;;;24.83;61.36;100406.16;7424397;19;1275;-82
2022/09/12 06:27:30;;;;;;;;;;;;;;;24.89;61.38;100385.63;7423631;19;1838;-84
2022/09/12 06:30:01;;;;;;;;;;;;;;;24.89;61.28;100397.31;7419747;19;1778;-86
2022/09/12 06:32:33;;;;;;;;;;;;;;;24.87;61.42;100393.97;7417975;19;978;-84
2022/09/12 06:35:04;;;;;;;;;;;;;;;24.87;61.47;100398.50;7416062;19;968;-83
2022/09/12 06:37:33;;;;;;;;;;;;;;;24.86;61.45;100391.44;7419772;19;1681;-84
2022/09/12 06:40:03;;;;;;;;;;;;;;;24.87;61.31;100399.38;7414798;19;1406;-83
2022/09/12 06:42:31;;;;;;;;;;;;;;;24.88;61.44;100384.81;7415858;19;1488;-84
2022/09/12 06:45:03;;;;;;;;;;;;;;;24.90;61.16;100396.28;7415803;19;1683;-82
2022/09/12 06:47:34;;;;;;;;;;;;;;;24.86;61.53;100389.56;7412897;19;1854;-81
2022/09/12 06:50:03;;;;;;;;;;;;;;;24.87;61.45;100398.50;7417304;19;1485;-81
2022/09/12 06:52:54;;;;;;;;;;;;;;;24.89;61.27;100397.31;7411796;19;927;-82
2022/09/12 06:55:23;;;;;;;;;;;;;;;24.85;61.41;100392.44;7426290;19;1033;-82
2022/09/12 06:57:52;;;;;;;;;;;;;;;24.88;61.44;100394.78;7418683;19;1532;-82
2022/09/12 07:00:26;;;;;;;;;;;;;;;24.87;61.60;100391.25;7414308;19;1564;-84
2022/09/12 07:03:06;;;;;;;;;;;;;;;24.89;61.08;100409.97;7415422;19;1402;-83
2022/09/12 07:08:29;;;;;;;;;;;;;;;24.92;61.11;100405.03;7411217;19;1823;-82
2022/09/12 07:11:10;;;;;;;;;;;;;;;24.88;61.21;100390.22;7413053;19;1564;-82
2022/09/12 07:13:39;;;;;;;;;;;;;;;24.91;61.45;100406.09;7415732;19;1225;-84
2022/09/12 07:16:11;;;;;;;;;;;;;;;24.93;61.21;100389.66;7409476;19;1382;-84
2022/09/12 07:18:40;;;;;;;;;;;;;;;24.93;61.12;100401.34;7412250;19;1255;-83
2022/09/12 07:21:11;;;;;;;;;;;;;;;24.89;61.36;100397.31;7411531;19;1370;-82
2022/09/12 07:23:40;;;;;;;;;;;;;;;24.92;61.28;100407.75;7411719;19;1493;-83
2022/09/12 07:26:16;;;;;;;;;;;;;;;24.91;61.20;100403.38;7411822;19;1776;-82
2022/09/12 07:28:44;;;;;;;;;;;;;;;24.91;61.33;100395.28;7410678;19;1845;-83
2022/09/12 07:31:17;;;;;;;;;;;;;;;24.96;61.36;100400.13;7414052;19;1344;-83
2022/09/12 07:33:47;;;;;;;;;;;;;;;24.93;61.31;100406.75;7412222;19;1705;-85
2022/09/12 07:36:17;;;;;;;;;;;;;;;24.93;61.32;100393.22;7413106;19;1411;-84
2022/09/12 07:38:48;;;;;;;;;;;;;;;25.02;61.17;100399.38;7415387;19;1169;-84
2022/09/12 07:41:20;;;;;;;;;;;;;;;24.97;61.16;100393.69;7422797;19;1396;-84
2022/09/12 07:43:48;;;;;;;;;;;;;;;24.96;61.25;100395.53;7414605;19;1825;-83
2022/09/12 07:46:21;;;;;;;;;;;;;;;25.03;61.20;100409.19;7414454;19;1730;-84
2022/09/12 07:48:52;;;;;;;;;;;;;;;24.96;61.14;100387.41;7411734;19;1851;-83
2022/09/12 07:51:22;;;;;;;;;;;;;;;24.99;61.00;100397.88;7413553;19;1492;-82
2022/09/12 07:53:50;;;;;;;;;;;;;;;24.97;61.21;100389.13;7413152;19;1622;-82
2022/09/12 07:56:40;;;;;;;;;;;;;;;24.99;61.01;100397.88;7410432;19;1372;-82
2022/09/12 07:59:08;;;;;;;;;;;;;;;24.99;61.23;100387.06;7408498;19;1057;-83
2022/09/12 08:01:42;;;;;;;;;;;;;;;24.99;61.15;100403.31;7409330;19;1385;-84
2022/09/12 08:04:11;;;;;;;;;;;;;;;24.97;60.97;100396.41;7410696;19;1489;-83
2022/09/12 08:06:43;;;;;;;;;;;;;;;24.92;61.32;100386.13;7411734;19;1671;-84
2022/09/12 08:09:14;;;;;;;;;;;;;;;24.98;61.37;100396.19;7409083;19;1837;-84
2022/09/12 08:11:47;;;;;;;;;;;;;;;24.98;61.44;100381.84;7412732;19;1743;-84
2022/09/12 08:14:17;;;;;;;;;;;;;;;25.04;61.10;100391.91;7410082;19;1631;-83
2022/09/12 08:16:50;;;;;;;;;;;;;;;25.06;61.18;100387.16;7412241;19;1610;-83
2022/09/12 08:19:21;;;;;;;;;;;;;;;25.03;61.17;100376.72;7411288;19;1313;-85
2022/09/12 08:21:49;;;;;;;;;;;;;;;24.96;61.36;100368.50;7418691;19;1404;-81
2022/09/12 08:24:20;;;;;;;;;;;;;;;24.94;61.24;100373.25;7422520;19;1043;-81
2022/09/12 08:26:50;;;;;;;;;;;;;;;24.95;61.44;100369.53;7407644;19;1634;-81
2022/09/12 08:29:18;;;;;;;;;;;;;;;24.94;61.34;100372.41;7409676;19;1838;-81
2022/09/12 08:31:50;;;;;;;;;;;;;;;24.96;61.31;100356.84;7409887;19;1310;-82
2022/09/12 08:34:19;;;;;;;;;;;;;;;24.93;61.19;100360.75;7411753;19;1439;-82
2022/09/12 08:36:48;;;;;;;;;;;;;;;24.93;61.17;100349.94;7409203;19;1421;-81
2022/09/12 08:39:17;;;;;;;;;;;;;;;25.00;61.12;100372.50;7411529;19;1332;-82
2022/09/12 08:41:46;;;;;;;;;;;;;;;24.95;61.16;100363.28;7410351;19;1543;-82
2022/09/12 08:44:30;;;;;;;;;;;;;;;24.99;61.32;100364.59;7410209;19;975;-82
2022/09/12 08:47:15;;;;;;;;;;;;;;;24.96;61.37;100336.03;7410600;19;1294;-82
2022/09/12 08:49:52;;;;;;;;;;;;;;;24.96;61.36;100327.09;7409462;19;1653;-82
2022/09/12 08:52:29;;;;;;;;;;;;;;;24.97;61.38;100345.84;7412158;19;932;-83
2022/09/12 08:54:58;;;;;;;;;;;;;;;24.94;61.56;100342.66;7423911;19;1757;-82
2022/09/12 08:57:27;;;;;;;;;;;;;;;24.94;61.27;100339.94;7408581;19;1744;-82
2022/09/12 08:59:55;;;;;;;;;;;;;;;24.95;61.45;100326.25;7411352;19;1133;-81
2022/09/12 09:02:45;;;;;;;;;;;;;;;24.99;61.36;100334.84;7408629;19;1701;-82
2022/09/12 09:05:25;;;;;;;;;;;;;;;24.97;61.48;100329.59;7408206;19;1674;-84
2022/09/12 09:08:12;;;;;;;;;;;;;;;24.98;61.41;100343.97;7409117;19;1839;-81
2022/09/12 09:10:44;;;;;;;;;;;;;;;24.98;61.60;100328.56;7409040;19;1677;-82
2022/09/12 09:14:46;;;;;;;;;;;;;;;24.96;61.57;100332.50;7408110;19;1678;-82
2022/09/12 09:16:14;;;;;;;;;;;;;;;24.92;61.72;100304.97;7406628;19;889;-81
2022/09/12 09:18:46;;;;;;;;;;;;;;;24.93;61.70;100322.88;7411883;19;1082;-82
2022/09/12 09:21:23;;;;;;;;;;;;;;;24.93;61.65;100312.06;7411703;19;1764;-81
2022/09/12 09:23:56;;;;;;;;;;;;;;;24.94;61.60;100313.72;7418460;19;1768;-82
2022/09/12 09:26:31;;;;;;;;;;;;;;;24.93;61.50;100306.66;7417365;19;1472;-83
2022/09/12 09:29:02;;;;;;;;;;;;;;;24.94;61.59;100305.63;7418522;19;1834;-81
2022/09/12 09:31:35;;;;;;;;;;;;;;;24.94;61.73;100297.50;7417418;19;1654;-81
2022/09/12 09:34:07;;;;;;;;;;;;;;;24.97;61.76;100307.13;7419519;19;1689;-82
2022/09/12 09:36:45;;;;;;;;;;;;;;;24.99;61.41;100311.31;7417736;19;1643;-82
2022/09/12 09:39:18;;;;;;;;;;;;;;;25.04;61.49;100308.06;7420392;19;1057;-82
2022/09/12 09:41:51;;;;;;;;;;;;;;;24.98;61.64;100290.69;7418996;19;1721;-82
2022/09/12 09:44:22;;;;;;;;;;;;;;;25.00;61.56;100290.50;7418135;19;1641;-82
2022/09/12 09:46:54;;;;;;;;;;;;;;;24.99;61.50;100297.81;7422476;19;1712;-81
2022/09/12 09:49:24;;;;;;;;;;;;;;;25.01;61.57;100273.28;7429925;19;1839;-81
2022/09/12 09:51:56;;;;;;;;;;;;;;;25.01;61.48;100301.16;7419980;19;1881;-82
2022/09/12 09:54:27;;;;;;;;;;;;;;;25.06;61.58;100288.94;7422962;19;1043;-82
2022/09/12 09:56:58;;;;;;;;;;;;;;;25.05;61.64;100322.41;7424395;19;1866;-82
2022/09/12 09:59:28;;;;;;;;;;;;;;;25.04;61.36;100291.00;7418575;19;1815;-82
2022/09/12 10:02:00;;;;;;;;;;;;;;;25.01;61.42;100293.03;7416625;19;1670;-82
2022/09/12 10:04:30;;;;;;;;;;;;;;;25.00;61.53;100285.94;7417107;19;1513;-82
2022/09/12 10:07:03;;;;;;;;;;;;;;;25.01;61.59;100300.31;7428221;19;880;-81
2022/09/12 10:09:34;;;;;;;;;;;;;;;25.08;61.57;100295.00;7411197;19;1847;-83
2022/09/12 10:12:21;;;;;;;;;;;;;;;25.08;61.44;100292.28;7419482;19;1010;-82
2022/09/12 10:14:59;;;;;;;;;;;;;;;25.05;61.50;100287.25;7417566;19;1666;-81
2022/09/12 10:17:30;;;;;;;;;;;;;;;25.01;61.42;100282.22;7418169;19;1759;-82
2022/09/12 10:20:00;;;;;;;;;;;;;;;25.01;61.73;100282.22;7418601;19;1052;-81
2022/09/12 10:22:33;;;;;;;;;;;;;;;25.05;61.62;100288.09;7415289;19;1468;-81
2022/09/12 10:25:02;;;;;;;;;;;;;;;25.07;61.59;100288.75;7412779;19;949;-82
2022/09/12 10:27:32;;;;;;;;;;;;;;;25.08;61.34;100284.19;7416065;19;1483;-82
2022/09/12 10:30:03;;;;;;;;;;;;;;;25.06;61.70;100286.22;7417260;19;1842;-82
2022/09/12 10:32:33;;;;;;;;;;;;;;;25.06;61.38;100284.34;7416134;19;1698;-83
2022/09/12 10:35:07;;;;;;;;;;;;;;;25.05;61.49;100287.25;7412220;19;1749;-84
2022/09/12 10:37:42;;;;;;;;;;;;;;;25.06;61.36;100275.41;7416814;19;1768;-83
2022/09/12 10:40:23;;;;;;;;;;;;;;;25.11;61.60;100281.94;7418243;19;1618;-83
2022/09/12 10:42:53;;;;;;;;;;;;;;;25.05;61.55;100268.31;7412451;19;1381;-83
2022/09/12 10:45:25;;;;;;;;;;;;;;;25.10;61.31;100274.84;7413953;19;1558;-82
2022/09/12 10:47:54;;;;;;;;;;;;;;;25.04;61.45;100267.47;7415842;19;1346;-82
2022/09/12 10:50:25;;;;;;;;;;;;;;;25.03;61.24;100284.75;7417042;19;1571;-81
2022/09/12 10:52:56;;;;;;;;;;;;;;;25.03;61.36;100263.09;7418051;19;1004;-82
2022/09/12 10:55:28;;;;;;;;;;;;;;;25.07;61.16;100277.06;7414163;19;1655;-81
2022/09/12 10:58:06;;;;;;;;;;;;;;;25.11;61.28;100276.53;7413030;19;1768;-82
2022/09/12 11:00:39;;;;;;;;;;;;;;;25.08;61.17;100286.88;7409128;19;1508;-82
2022/09/12 11:03:12;;;;;;;;;;;;;;;25.05;61.16;100276.41;7412915;19;1480;-82
2022/09/12 11:05:49;;;;;;;;;;;;;;;25.10;61.14;100284.81;7414731;19;1882;-82
2022/09/12 11:08:32;;;;;;;;;;;;;;;25.06;61.21;100272.69;7415813;19;1831;-81
2022/09/12 11:11:05;;;;;;;;;;;;;;;25.07;61.34;100274.38;7417493;19;1748;-82
2022/09/12 11:13:46;;;;;;;;;;;;;;;25.05;61.18;100265.59;7429579;19;1563;-83
2022/09/12 11:16:23;;;;;;;;;;;;;;;25.10;61.22;100271.28;7411003;19;1022;-82
2022/09/12 11:19:03;;;;;;;;;;;;;;;25.07;61.29;100266.25;7420872;19;1086;-82
2022/09/12 11:21:49;;;;;;;;;;;;;;;25.04;61.62;100256.66;7418762;19;1049;-82
2022/09/12 11:24:31;;;;;;;;;;;;;;;25.01;61.38;100266.00;7413315;19;1246;-82
2022/09/12 11:27:09;;;;;;;;;;;;;;;25.05;61.65;100268.31;7414362;19;1622;-82
2022/09/12 11:29:48;;;;;;;;;;;;;;;25.04;61.56;100261.22;7412866;19;1817;-82
2022/09/12 11:32:31;;;;;;;;;;;;;;;25.05;61.61;100255.63;7415322;19;1435;-84
2022/09/12 11:35:07;;;;;;;;;;;;;;;25.03;61.57;100236.06;7414587;19;1508;-82
2022/09/12 11:37:44;;;;;;;;;;;;;;;25.03;61.47;100241.47;7413046;19;1485;-82
2022/09/12 11:40:28;;;;;;;;;;;;;;;25.04;61.29;100234.19;7414478;19;1361;-81
2022/09/12 11:43:00;;;;;;;;;;;;;;;25.02;61.53;100246.00;7413548;19;1332;-82
2022/09/12 11:45:36;;;;;;;;;;;;;;;25.02;61.70;100246.00;7414892;19;1415;-82
2022/09/12 11:48:07;;;;;;;;;;;;;;;25.02;61.70;100229.78;7411174;19;1410;-83
2022/09/12 11:50:36;;;;;;;;;;;;;;;24.97;61.54;100237.63;7411754;19;1845;-82
2022/09/12 11:53:08;;;;;;;;;;;;;;;24.98;61.31;100246.59;7412802;19;1201;-82
2022/09/12 11:55:55;;;;;;;;;;;;;;;24.97;61.79;100244.91;7412948;19;1674;-82
2022/09/12 11:58:28;;;;;;;;;;;;;;;24.98;61.58;100244.72;7414252;19;1479;-85
2022/09/12 12:01:10;;;;;;;;;;;;;;;24.96;61.71;100225.13;7415597;19;1492;-83
2022/09/12 12:03:47;;;;;;;;;;;;;;;24.97;61.56;100221.41;7415594;19;1364;-83
2022/09/12 12:06:18;;;;;;;;;;;;;;;25.00;61.74;100242.66;7417403;19;1344;-83
2022/09/12 12:08:49;;;;;;;;;;;;;;;25.00;61.65;100229.13;7412979;19;1818;-82
2022/09/12 12:11:32;;;;;;;;;;;;;;;24.99;61.61;100208.53;7414213;19;1172;-82
2022/09/12 12:14:04;;;;;;;;;;;;;;;25.00;61.55;100215.59;7417960;19;1259;-82
2022/09/12 12:16:36;;;;;;;;;;;;;;;24.95;61.65;100201.81;7414934;19;1465;-82
2022/09/12 12:19:20;;;;;;;;;;;;;;;24.97;61.65;100220.56;7415355;19;1241;-83
2022/09/12 12:21:49;;;;;;;;;;;;;;;24.98;61.68;100206.84;7415994;19;1113;-83
2022/09/12 12:24:19;;;;;;;;;;;;;;;24.97;61.77;100216.00;7417230;19;1368;-83
2022/09/12 12:27:02;;;;;;;;;;;;;;;24.99;61.66;100202.28;7417543;19;1381;-83
2022/09/12 12:29:54;;;;;;;;;;;;;;;24.97;61.94;100191.66;7416298;19;1855;-82
2022/09/12 12:32:26;;;;;;;;;;;;;;;24.98;61.48;100192.47;7415350;19;1414;-82
2022/09/12 12:35:19;;;;;;;;;;;;;;;24.97;61.70;100198.94;7426161;19;1295;-83
2022/09/12 12:37:54;;;;;;;;;;;;;;;25.02;61.65;100193.78;7423551;19;1401;-82
2022/09/12 12:40:26;;;;;;;;;;;;;;;24.99;61.66;100180.66;7417489;19;1343;-83
2022/09/12 12:43:10;;;;;;;;;;;;;;;25.02;61.67;100177.56;7415088;19;1358;-82
2022/09/12 12:46:08;;;;;;;;;;;;;;;24.99;61.80;100194.19;7417148;19;1464;-82
2022/09/12 12:48:52;;;;;;;;;;;;;;;25.00;61.79;100175.03;7413194;19;1866;-83
2022/09/12 12:51:46;;;;;;;;;;;;;;;24.96;61.88;100179.13;7415140;19;1614;-84
2022/09/12 12:54:30;;;;;;;;;;;;;;;25.01;61.83;100187.53;7412057;19;1007;-82
2022/09/12 12:57:13;;;;;;;;;;;;;;;25.00;61.59;100177.72;7416005;19;1757;-82
2022/09/12 12:59:50;;;;;;;;;;;;;;;24.99;61.54;100178.78;7413342;19;1808;-83
2022/09/12 13:02:24;;;;;;;;;;;;;;;25.04;61.53;100188.19;7413893;19;1783;-82
2022/09/12 13:04:54;;;;;;;;;;;;;;;25.00;61.75;100172.31;7414315;19;1776;-82
2022/09/12 13:07:29;;;;;;;;;;;;;;;24.97;61.94;100170.00;7413566;19;1517;-83
2022/09/12 13:09:58;;;;;;;;;;;;;;;24.96;61.76;100176.44;7410463;19;1849;-82
2022/09/12 13:12:30;;;;;;;;;;;;;;;24.99;61.72;100181.47;7415969;19;1016;-82
2022/09/12 13:15:02;;;;;;;;;;;;;;;25.00;61.89;100169.63;7415937;19;1026;-86
2022/09/12 13:17:39;;;;;;;;;;;;;;;25.00;61.71;100177.72;7409583;19;1662;-83
2022/09/12 13:20:23;;;;;;;;;;;;;;;24.98;61.64;100165.44;7412312;19;967;-82
2022/09/12 13:22:53;;;;;;;;;;;;;;;24.99;62.07;100178.78;7412452;19;1603;-82